Time;durP1;ratioP1;P1;durP2;ratioP2;P2;SDS_P1;SDS_P2;PMS_P1;PMS_P2;Temp;Humidity;BMP_temperature;BMP_pressure;BME280_temperature;BME280_humidity;BME280_pressure;Samples;Min_cycle;Max_cycle;Signal;HPM_P1;HPM_P2
2021/05/03 00:03:28;;;;;;;1.50;0.68;;;15.60;51.70;;;;;;20351513;29;20391;-72
2021/05/03 00:13:29;;;;;;;0.40;0.40;;;15.60;51.60;;;;;;20349271;29;20055;-73
2021/05/03 00:23:29;;;;;;;1.85;0.93;;;15.60;51.60;;;;;;20348251;29;20036;-72
2021/05/03 00:33:30;;;;;;;1.27;0.50;;;15.60;51.50;;;;;;20364025;29;20512;-76
2021/05/03 00:43:31;;;;;;;2.08;0.40;;;15.50;51.40;;;;;;20362732;29;20311;-74
2021/05/03 00:53:32;;;;;;;0.65;0.45;;;15.50;51.40;;;;;;20346652;29;20403;-73
2021/05/03 01:03:32;;;;;;;1.87;0.50;;;15.50;51.40;;;;;;20361217;29;20032;-73
2021/05/03 01:13:33;;;;;;;1.10;0.85;;;15.50;51.30;;;;;;20361167;29;20793;-73
2021/05/03 01:23:33;;;;;;;1.85;1.02;;;15.50;51.30;;;;;;20360320;29;20035;-73
2021/05/03 01:33:34;;;;;;;3.53;0.73;;;15.50;51.20;;;;;;20360386;29;20070;-73
2021/05/03 01:43:35;;;;;;;2.78;0.57;;;15.50;51.20;;;;;;20359159;29;20044;-74
2021/05/03 01:53:35;;;;;;;2.00;0.63;;;15.40;51.10;;;;;;20342933;29;20562;-72
2021/05/03 02:03:36;;;;;;;2.70;0.60;;;15.40;51.00;;;;;;20343793;29;20177;-73
2021/05/03 02:13:37;;;;;;;1.07;0.60;;;15.40;51.00;;;;;;20357855;29;20406;-72
2021/05/03 02:23:38;;;;;;;0.75;0.70;;;15.30;50.90;;;;;;20341788;29;20300;-73
2021/05/03 02:33:38;;;;;;;0.77;0.38;;;15.40;51.00;;;;;;20357466;29;20048;-74
2021/05/03 02:43:39;;;;;;;1.77;0.82;;;15.30;50.90;;;;;;20362481;29;20146;-72
2021/05/03 02:53:40;;;;;;;0.80;0.43;;;15.40;50.90;;;;;;20357447;29;20040;-73
2021/05/03 03:03:40;;;;;;;0.85;0.55;;;15.30;50.80;;;;;;20354168;29;20806;-72
2021/05/03 03:13:41;;;;;;;1.42;0.65;;;15.30;50.80;;;;;;20354217;29;20403;-76
2021/05/03 03:23:41;;;;;;;1.40;0.80;;;15.30;50.70;;;;;;20352628;29;20099;-73
2021/05/03 03:33:42;;;;;;;2.27;0.60;;;15.30;50.70;;;;;;20368960;29;20655;-72
2021/05/03 03:43:42;;;;;;;1.08;0.65;;;15.30;50.70;;;;;;20351389;29;20288;-73
2021/05/03 03:53:43;;;;;;;1.35;0.40;;;15.30;50.70;;;;;;20365772;29;20057;-72
2021/05/03 04:03:48;;;;;;;0.52;0.52;;;15.20;50.60;;;;;;20365359;29;20044;-74
2021/05/03 04:24:20;;;;;;;0.28;0.25;;;15.20;50.50;;;;;;20348747;29;20040;-72
2021/05/03 04:34:21;;;;;;;1.38;0.65;;;15.20;50.50;;;;;;20363458;29;20044;-75
2021/05/03 04:44:22;;;;;;;1.02;0.45;;;15.20;50.50;;;;;;20347540;29;20074;-73
2021/05/03 04:54:22;;;;;;;0.55;0.40;;;15.20;50.40;;;;;;20346810;29;20040;-74
2021/05/03 05:04:23;;;;;;;0.38;0.38;;;15.20;50.40;;;;;;20353753;29;20044;-75
2021/05/03 05:14:23;;;;;;;1.15;0.60;;;15.20;50.40;;;;;;20339688;29;20123;-75
2021/05/03 05:24:24;;;;;;;1.58;0.57;;;15.20;50.40;;;;;;20332663;29;20040;-74
2021/05/03 05:34:25;;;;;;;0.75;0.40;;;15.20;51.10;;;;;;20333252;29;20032;-74
2021/05/03 05:44:26;;;;;;;0.35;0.30;;;15.20;50.50;;;;;;20325770;29;20115;-79
2021/05/03 05:54:28;;;;;;;0.40;0.32;;;15.20;50.50;;;;;;20320683;29;20396;-78
2021/05/03 06:04:32;;;;;;;0.45;0.43;;;15.20;50.60;;;;;;20324558;29;20059;-78
2021/05/03 06:14:33;;;;;;;2.20;0.45;;;15.30;50.60;;;;;;20323403;29;20115;-78
2021/05/03 06:24:34;;;;;;;1.25;0.57;;;15.30;50.50;;;;;;20313490;29;20048;-78
2021/05/03 06:34:35;;;;;;;3.35;1.60;;;15.30;50.50;;;;;;20314104;29;20185;-77
2021/05/03 06:44:36;;;;;;;1.05;0.60;;;15.30;50.40;;;;;;20331856;29;20044;-78
2021/05/03 06:54:36;;;;;;;0.60;0.40;;;15.30;50.40;;;;;;20316439;29;20122;-76
2021/05/03 07:04:38;;;;;;;1.75;0.85;;;15.30;50.40;;;;;;20330094;29;20510;-77
2021/05/03 07:14:38;;;;;;;1.55;0.50;;;15.30;50.30;;;;;;20322546;29;20091;-79
2021/05/03 07:24:40;;;;;;;1.30;0.50;;;15.20;50.40;;;;;;20327457;29;20040;-77
2021/05/03 07:34:40;;;;;;;0.40;0.40;;;15.20;50.70;;;;;;20305389;29;20108;-77
2021/05/03 07:44:41;;;;;;;1.70;0.70;;;14.90;51.10;;;;;;20322345;29;20048;-77
2021/05/03 07:54:42;;;;;;;0.43;0.40;;;14.50;51.70;;;;;;20330780;29;20490;-77
2021/05/03 08:04:43;;;;;;;1.43;0.60;;;14.30;52.30;;;;;;20346376;29;20079;-77
2021/05/03 08:14:44;;;;;;;1.05;0.40;;;14.00;52.70;;;;;;20383767;29;20338;-77
2021/05/03 08:24:44;;;;;;;0.93;0.52;;;13.90;53.10;;;;;;20344969;29;20125;-77
2021/05/03 08:34:45;;;;;;;0.95;0.68;;;13.70;53.40;;;;;;20361842;29;20041;-78
2021/05/03 08:44:48;;;;;;;0.97;0.60;;;13.60;53.70;;;;;;20791215;23;20043;-77
2021/05/03 08:54:49;;;;;;;0.45;0.45;;;13.50;53.80;;;;;;20534519;28;20637;-76
2021/05/03 09:04:50;;;;;;;1.40;0.45;;;13.30;54.00;;;;;;20509378;28;20046;-78
2021/05/03 09:14:59;;;;;;;0.90;0.60;;;13.30;54.40;;;;;;20489490;28;20068;-77
2021/05/03 09:25:21;;;;;;;0.57;0.50;;;13.20;54.70;;;;;;20456912;28;20409;-76
2021/05/03 09:35:23;;;;;;;0.50;0.50;;;13.10;55.10;;;;;;20563063;28;20038;-77
2021/05/03 09:45:33;;;;;;;0.40;0.30;;;13.10;55.30;;;;;;20504556;28;20477;-77
2021/05/03 09:55:40;;;;;;;0.70;0.50;;;13.00;55.50;;;;;;20492157;28;20039;-77
2021/05/03 10:05:40;;;;;;;0.55;0.55;;;13.00;55.90;;;;;;20500295;28;20461;-79
2021/05/03 10:15:41;;;;;;;0.80;0.40;;;13.00;56.00;;;;;;20486288;28;20043;-74
2021/05/03 10:25:42;;;;;;;0.73;0.30;;;13.00;56.20;;;;;;20490670;28;20028;-73
2021/05/03 10:35:44;;;;;;;0.85;0.60;;;13.00;56.40;;;;;;20483578;28;20039;-80
2021/05/03 10:56:01;;;;;;;1.08;0.38;;;12.90;56.60;;;;;;20566233;28;20038;-75
2021/05/03 11:06:02;;;;;;;1.13;0.40;;;12.90;56.70;;;;;;20508313;28;20030;-75
2021/05/03 11:16:24;;;;;;;3.37;1.10;;;12.90;56.90;;;;;;20546025;28;20035;-74
2021/05/03 11:26:28;;;;;;;3.38;0.68;;;12.90;57.10;;;;;;20575841;28;20292;-75
2021/05/03 11:36:32;;;;;;;0.80;0.68;;;12.90;57.20;;;;;;20528925;28;20394;-75
2021/05/03 11:46:35;;;;;;;1.25;1.02;;;12.90;57.20;;;;;;20574142;28;20043;-74
2021/05/03 11:56:35;;;;;;;1.45;0.88;;;12.90;57.20;;;;;;20575895;28;20031;-75
2021/05/03 12:06:40;;;;;;;2.00;1.08;;;12.90;57.20;;;;;;20530484;28;20042;-75
2021/05/03 12:16:41;;;;;;;2.70;1.65;;;12.80;57.10;;;;;;20517363;28;20118;-76
2021/05/03 12:26:57;;;;;;;2.25;1.20;;;12.80;56.90;;;;;;20513244;28;20046;-75
2021/05/03 12:37:06;;;;;;;2.73;1.47;;;12.80;56.70;;;;;;20499361;28;20039;-75
2021/05/03 12:47:49;;;;;;;4.25;1.63;;;12.80;56.60;;;;;;20487744;28;20039;-76
2021/05/03 12:58:01;;;;;;;3.88;1.67;;;12.80;56.30;;;;;;20478501;28;20506;-79
2021/05/03 13:08:32;;;;;;;4.15;1.70;;;12.80;56.20;;;;;;20554834;28;20039;-79
2021/05/03 13:29:08;;;;;;;2.55;1.50;;;12.80;56.10;;;;;;20537197;28;20062;-81
2021/05/03 13:39:09;;;;;;;2.00;1.38;;;12.70;56.60;;;;;;20467263;28;20039;-79
2021/05/03 13:49:10;;;;;;;3.20;1.20;;;12.80;57.20;;;;;;20478652;28;20102;-79
2021/05/03 13:59:10;;;;;;;2.30;1.50;;;12.80;57.40;;;;;;20559854;28;20513;-76
2021/05/03 14:09:11;;;;;;;1.63;1.17;;;12.90;57.60;;;;;;20578007;28;20340;-76
2021/05/03 14:19:15;;;;;;;4.68;1.65;;;13.00;57.70;;;;;;20562301;28;20105;-78
2021/05/03 14:29:26;;;;;;;3.65;1.83;;;13.10;57.70;;;;;;20564219;28;20147;-79
2021/05/03 14:39:27;;;;;;;5.22;1.27;;;13.20;57.80;;;;;;20555514;28;20138;-77
2021/05/03 14:59:47;;;;;;;2.80;1.83;;;13.20;58.00;;;;;;20419045;28;21726;-81
2021/05/03 15:09:49;;;;;;;2.78;1.30;;;13.30;58.10;;;;;;20328942;28;20113;-80
2021/05/03 15:20:06;;;;;;;4.32;1.55;;;13.30;58.20;;;;;;20425109;28;20073;-77
2021/05/03 15:40:18;;;;;;;1.80;1.20;;;13.50;57.50;;;;;;20344274;28;20277;-80
2021/05/03 15:50:19;;;;;;;1.52;0.82;;;13.60;58.00;;;;;;20400782;28;20047;-75
2021/05/03 16:00:20;;;;;;;2.85;0.85;;;13.60;57.00;;;;;;20545164;28;20051;-75
2021/05/03 16:10:22;;;;;;;1.42;0.88;;;13.70;56.90;;;;;;20572193;28;20081;-74
2021/05/03 16:20:23;;;;;;;1.80;0.95;;;13.60;56.70;;;;;;20556764;28;20034;-75
2021/05/03 16:30:24;;;;;;;1.67;1.00;;;13.60;56.80;;;;;;20548697;28;20166;-75
2021/05/03 16:40:24;;;;;;;1.98;0.73;;;13.50;57.00;;;;;;20460120;29;20537;-76
2021/05/03 16:50:25;;;;;;;2.58;0.60;;;13.50;57.10;;;;;;20474525;29;20054;-75
2021/05/03 17:00:26;;;;;;;1.58;0.88;;;13.40;57.30;;;;;;20508296;28;20126;-73
2021/05/03 17:10:28;;;;;;;1.83;0.88;;;13.40;57.40;;;;;;20567764;28;20046;-74
2021/05/03 17:20:31;;;;;;;1.20;0.77;;;13.40;57.60;;;;;;20566827;28;20050;-74
2021/05/03 17:30:31;;;;;;;2.08;0.70;;;13.30;57.90;;;;;;20563543;28;20035;-69
2021/05/03 17:40:32;;;;;;;0.90;0.50;;;13.30;58.00;;;;;;20562198;28;20045;-73
2021/05/03 17:50:33;;;;;;;1.33;0.77;;;13.20;58.10;;;;;;20572505;28;20050;-75
2021/05/03 18:00:34;;;;;;;1.65;0.80;;;13.20;58.20;;;;;;20561132;28;20066;-73
2021/05/03 18:10:35;;;;;;;2.77;0.60;;;13.20;58.30;;;;;;20613421;28;20069;-73
2021/05/03 18:20:39;;;;;;;0.75;0.60;;;13.20;58.40;;;;;;20658226;28;20321;-74
2021/05/03 18:30:40;;;;;;;0.52;0.52;;;13.10;58.40;;;;;;20673222;28;20066;-76
2021/05/03 18:40:40;;;;;;;1.08;0.70;;;13.10;58.50;;;;;;20672440;28;20058;-74
2021/05/03 18:50:42;;;;;;;1.02;0.60;;;13.10;58.50;;;;;;20655460;28;20170;-74
2021/05/03 19:00:43;;;;;;;1.50;0.70;;;13.10;58.60;;;;;;20655892;28;20049;-76
2021/05/03 19:10:43;;;;;;;1.63;0.85;;;13.00;58.70;;;;;;20597879;28;20098;-73
2021/05/03 19:20:44;;;;;;;0.77;0.65;;;13.00;58.70;;;;;;20520185;28;20035;-75
2021/05/03 19:31:04;;;;;;;0.95;0.65;;;13.00;58.80;;;;;;20513815;28;20130;-75
2021/05/03 19:41:05;;;;;;;1.45;0.70;;;13.00;58.90;;;;;;20521999;28;20039;-75
2021/05/03 20:11:54;;;;;;;1.23;0.73;;;12.90;59.00;;;;;;20524957;28;20022;-77
2021/05/03 20:21:54;;;;;;;1.70;0.80;;;12.90;59.10;;;;;;20528374;28;20031;-75
2021/05/03 20:31:55;;;;;;;1.40;0.70;;;12.90;59.10;;;;;;20520147;28;20034;-78
2021/05/03 20:41:56;;;;;;;2.40;0.60;;;12.90;59.10;;;;;;20511233;28;20045;-76
2021/05/03 20:51:56;;;;;;;0.60;0.50;;;12.80;59.10;;;;;;20527803;28;20038;-75
2021/05/03 21:01:57;;;;;;;0.80;0.60;;;12.80;59.10;;;;;;20527504;28;20470;-75
2021/05/03 21:11:58;;;;;;;1.10;0.80;;;12.80;59.20;;;;;;20529241;28;20437;-75
2021/05/03 21:21:58;;;;;;;0.80;0.70;;;12.80;59.20;;;;;;20527922;28;20325;-77
2021/05/03 21:31:59;;;;;;;1.02;0.70;;;12.80;59.20;;;;;;20532367;28;20529;-77
2021/05/03 21:42:00;;;;;;;0.85;0.73;;;12.80;59.20;;;;;;20544663;28;20031;-76
2021/05/03 21:52:02;;;;;;;0.50;0.43;;;12.70;59.20;;;;;;20493034;28;20138;-75
2021/05/03 22:02:02;;;;;;;0.35;0.32;;;12.80;59.20;;;;;;20523560;28;20278;-76
2021/05/03 22:12:05;;;;;;;2.00;0.60;;;12.70;59.20;;;;;;20539804;28;20481;-76
2021/05/03 22:32:25;;;;;;;0.63;0.50;;;12.70;59.30;;;;;;20538959;28;20045;-75
2021/05/03 23:14:48;;;;;;;0.40;0.40;;;12.70;59.40;;;;;;20562782;28;20125;-76
2021/05/03 23:23:37;;;;;;;1.10;0.80;;;12.70;59.40;;;;;;20578875;28;20051;-75
2021/05/03 23:33:37;;;;;;;1.23;0.75;;;12.70;59.40;;;;;;20574679;28;20046;-75
2021/05/03 23:43:38;;;;;;;0.80;0.60;;;12.60;59.40;;;;;;20558118;28;20034;-75
2021/05/03 23:53:38;;;;;;;1.77;0.90;;;12.70;59.40;;;;;;20573009;28;20441;-75
